TAX74PM FNBJ-FZAA
Flight info
| Callsign | TAX74PM |
|---|---|
| Flight time | 1h 31m |
| Altitude | 15000 |
| Route | DISPO UA611 XIVMA DCT BELGU BELGU1A |
| Aircraft | DC6/M-SDE1FGHIRWXY/S |
Departure
| Time | 2026-04-14 19:11 |
|---|---|
| Airport | Dr. Antonio Agostinho Neto International Airport (FNBJ) |
Arrival
| Time | 2026-04-14 20:42 |
|---|---|
| Airport | Ndjili International Airport (FZAA) |
| Time | Latitude | Longitude | Altitude | Speed | Heading |
|---|---|---|---|---|---|
| 2026-04-14 18:36 | -9.04799 | 13.51265 | 541 ft | 0 kts | 316° |
| 2026-04-14 18:59 | -9.04796 | 13.51263 | 541 ft | 1 kts | 347° |
| 2026-04-14 18:59 | -9.04793 | 13.51264 | 541 ft | 0 kts | 18° |
| 2026-04-14 18:59 | -9.04791 | 13.51265 | 541 ft | 0 kts | 39° |
| 2026-04-14 18:59 | -9.04787 | 13.51270 | 536 ft | 2 kts | 62° |
| 2026-04-14 19:00 | -9.04785 | 13.51286 | 536 ft | 3 kts | 101° |
| 2026-04-14 19:00 | -9.04800 | 13.51306 | 541 ft | 4 kts | 139° |
| 2026-04-14 19:00 | -9.04830 | 13.51332 | 541 ft | 7 kts | 142° |
| 2026-04-14 19:00 | -9.04873 | 13.51363 | 542 ft | 8 kts | 144° |
| 2026-04-14 19:01 | -9.04920 | 13.51396 | 541 ft | 8 kts | 144° |
| 2026-04-14 19:01 | -9.04966 | 13.51427 | 542 ft | 7 kts | 159° |
| 2026-04-14 19:01 | -9.05002 | 13.51435 | 546 ft | 3 kts | 173° |
| 2026-04-14 19:01 | -9.05012 | 13.51435 | 547 ft | 0 kts | 186° |
| 2026-04-14 19:02 | -9.05015 | 13.51435 | 547 ft | 1 kts | 185° |
| 2026-04-14 19:02 | -9.05028 | 13.51433 | 549 ft | 2 kts | 194° |
| 2026-04-14 19:02 | -9.05043 | 13.51422 | 547 ft | 4 kts | 228° |
| 2026-04-14 19:02 | -9.05071 | 13.51385 | 547 ft | 9 kts | 232° |
| 2026-04-14 19:03 | -9.05118 | 13.51321 | 547 ft | 14 kts | 233° |
| 2026-04-14 19:03 | -9.05184 | 13.51234 | 547 ft | 17 kts | 232° |
| 2026-04-14 19:03 | -9.05263 | 13.51136 | 547 ft | 18 kts | 234° |
| 2026-04-14 19:03 | -9.05343 | 13.51035 | 548 ft | 17 kts | 232° |
| 2026-04-14 19:04 | -9.05415 | 13.50929 | 547 ft | 19 kts | 236° |
| 2026-04-14 19:04 | -9.05495 | 13.50818 | 547 ft | 20 kts | 231° |
| 2026-04-14 19:04 | -9.05578 | 13.50703 | 547 ft | 21 kts | 235° |
| 2026-04-14 19:04 | -9.05667 | 13.50581 | 546 ft | 22 kts | 233° |
| 2026-04-14 19:05 | -9.05761 | 13.50456 | 545 ft | 23 kts | 235° |
| 2026-04-14 19:05 | -9.05857 | 13.50324 | 544 ft | 24 kts | 235° |
| 2026-04-14 19:05 | -9.05955 | 13.50185 | 544 ft | 24 kts | 233° |
| 2026-04-14 19:05 | -9.06057 | 13.50046 | 544 ft | 25 kts | 233° |
| 2026-04-14 19:06 | -9.06160 | 13.49905 | 544 ft | 25 kts | 232° |
| 2026-04-14 19:06 | -9.06265 | 13.49762 | 544 ft | 26 kts | 231° |
| 2026-04-14 19:06 | -9.06375 | 13.49619 | 544 ft | 26 kts | 234° |
| 2026-04-14 19:06 | -9.06479 | 13.49467 | 542 ft | 27 kts | 233° |
| 2026-04-14 19:07 | -9.06593 | 13.49317 | 542 ft | 27 kts | 233° |
| 2026-04-14 19:07 | -9.06698 | 13.49173 | 541 ft | 24 kts | 233° |
| 2026-04-14 19:07 | -9.06776 | 13.49070 | 541 ft | 12 kts | 217° |
| 2026-04-14 19:07 | -9.06841 | 13.49056 | 542 ft | 8 kts | 167° |
| 2026-04-14 19:08 | -9.06878 | 13.49067 | 546 ft | 3 kts | 153° |
| 2026-04-14 19:08 | -9.06884 | 13.49070 | 546 ft | 0 kts | 149° |
| 2026-04-14 19:08 | -9.06885 | 13.49071 | 546 ft | 1 kts | 147° |
| 2026-04-14 19:08 | -9.06889 | 13.49074 | 546 ft | 0 kts | 143° |
| 2026-04-14 19:09 | -9.06892 | 13.49076 | 546 ft | 2 kts | 143° |
| 2026-04-14 19:09 | -9.06911 | 13.49094 | 545 ft | 5 kts | 126° |
| 2026-04-14 19:09 | -9.06914 | 13.49107 | 545 ft | 3 kts | 77° |
| 2026-04-14 19:09 | -9.06851 | 13.49211 | 545 ft | 35 kts | 57° |
| 2026-04-14 19:10 | -9.06626 | 13.49546 | 549 ft | 83 kts | 57° |
| 2026-04-14 19:10 | -9.06195 | 13.50149 | 557 ft | 126 kts | 53° |
| 2026-04-14 19:10 | -9.05625 | 13.50916 | 661 ft | 148 kts | 54° |
| 2026-04-14 19:10 | -9.04945 | 13.51826 | 692 ft | 179 kts | 54° |
| 2026-04-14 19:11 | -9.04165 | 13.52819 | 1146 ft | 176 kts | 51° |
| 2026-04-14 19:11 | -9.03343 | 13.53776 | 1395 ft | 184 kts | 49° |
| 2026-04-14 19:11 | -9.02453 | 13.54702 | 1799 ft | 181 kts | 44° |
| 2026-04-14 19:11 | -9.01547 | 13.55559 | 2224 ft | 177 kts | 44° |
| 2026-04-14 19:12 | -9.00647 | 13.56398 | 2597 ft | 175 kts | 43° |
| 2026-04-14 19:12 | -8.99753 | 13.57226 | 2960 ft | 173 kts | 44° |
| 2026-04-14 19:12 | -8.97957 | 13.58871 | 3546 ft | 178 kts | 42° |
| 2026-04-14 19:13 | -8.96988 | 13.59663 | 3829 ft | 180 kts | 38° |
| 2026-04-14 19:13 | -8.95927 | 13.60353 | 4106 ft | 183 kts | 29° |
| 2026-04-14 19:13 | -8.94760 | 13.60867 | 4400 ft | 184 kts | 20° |
| 2026-04-14 19:13 | -8.93517 | 13.61195 | 4689 ft | 185 kts | 11° |
| 2026-04-14 19:14 | -8.92233 | 13.61323 | 4974 ft | 186 kts | 1° |
| 2026-04-14 19:14 | -8.90943 | 13.61247 | 5249 ft | 186 kts | 352° |
| 2026-04-14 19:14 | -8.89680 | 13.60970 | 5525 ft | 186 kts | 343° |
| 2026-04-14 19:14 | -8.88477 | 13.60499 | 5798 ft | 185 kts | 334° |
| 2026-04-14 19:15 | -8.87365 | 13.59847 | 6064 ft | 185 kts | 324° |
| 2026-04-14 19:15 | -8.86371 | 13.59030 | 6333 ft | 184 kts | 315° |
| 2026-04-14 19:15 | -8.85520 | 13.58071 | 6567 ft | 183 kts | 306° |
| 2026-04-14 19:15 | -8.84833 | 13.56994 | 6804 ft | 182 kts | 297° |
| 2026-04-14 19:16 | -8.84327 | 13.55828 | 7038 ft | 181 kts | 288° |
| 2026-04-14 19:16 | -8.84001 | 13.54607 | 7266 ft | 179 kts | 282° |
| 2026-04-14 19:16 | -8.83665 | 13.53393 | 7485 ft | 179 kts | 287° |
| 2026-04-14 19:16 | -8.83233 | 13.52211 | 7696 ft | 179 kts | 291° |
| 2026-04-14 19:17 | -8.82711 | 13.51068 | 7910 ft | 179 kts | 296° |
| 2026-04-14 19:17 | -8.82114 | 13.49987 | 8108 ft | 178 kts | 300° |
| 2026-04-14 19:17 | -8.81408 | 13.48936 | 8326 ft | 179 kts | 307° |
| 2026-04-14 19:17 | -8.80556 | 13.48019 | 8556 ft | 184 kts | 317° |
| 2026-04-14 19:18 | -8.79524 | 13.47232 | 8826 ft | 187 kts | 327° |
| 2026-04-14 19:18 | -8.78367 | 13.46622 | 9100 ft | 189 kts | 337° |
| 2026-04-14 19:18 | -8.77116 | 13.46210 | 9377 ft | 190 kts | 346° |
| 2026-04-14 19:18 | -8.75809 | 13.46008 | 9659 ft | 190 kts | 356° |
| 2026-04-14 19:19 | -8.74489 | 13.46023 | 9919 ft | 190 kts | 5° |
| 2026-04-14 19:19 | -8.73185 | 13.46255 | 10170 ft | 190 kts | 15° |
| 2026-04-14 19:19 | -8.71934 | 13.46699 | 10421 ft | 191 kts | 24° |
| 2026-04-14 19:19 | -8.70763 | 13.47345 | 10697 ft | 192 kts | 33° |
| 2026-04-14 19:20 | -8.69680 | 13.48134 | 10997 ft | 192 kts | 38° |
| 2026-04-14 19:20 | -8.68622 | 13.48947 | 11286 ft | 191 kts | 35° |
| 2026-04-14 19:20 | -8.67483 | 13.49631 | 11571 ft | 191 kts | 26° |
| 2026-04-14 19:20 | -8.66246 | 13.50099 | 11843 ft | 190 kts | 14° |
| 2026-04-14 19:21 | -8.64964 | 13.50409 | 12124 ft | 190 kts | 13° |
| 2026-04-14 19:21 | -8.63677 | 13.50713 | 12406 ft | 190 kts | 13° |
| 2026-04-14 19:21 | -8.62387 | 13.51013 | 12701 ft | 190 kts | 13° |
| 2026-04-14 19:21 | -8.61096 | 13.51313 | 12971 ft | 190 kts | 13° |
| 2026-04-14 19:22 | -8.59805 | 13.51611 | 13257 ft | 190 kts | 13° |
| 2026-04-14 19:22 | -8.58517 | 13.51908 | 13528 ft | 190 kts | 13° |
| 2026-04-14 19:22 | -8.57230 | 13.52206 | 13785 ft | 189 kts | 13° |
| 2026-04-14 19:22 | -8.55943 | 13.52502 | 14019 ft | 190 kts | 13° |
| 2026-04-14 19:23 | -8.54650 | 13.52801 | 14254 ft | 192 kts | 13° |
| 2026-04-14 19:23 | -8.53340 | 13.53106 | 14475 ft | 194 kts | 13° |
| 2026-04-14 19:23 | -8.52015 | 13.53415 | 14703 ft | 196 kts | 13° |
| 2026-04-14 19:23 | -8.50679 | 13.53728 | 14899 ft | 200 kts | 13° |
| 2026-04-14 19:24 | -8.49285 | 13.54054 | 14937 ft | 212 kts | 13° |
| 2026-04-14 19:24 | -8.47804 | 13.54403 | 14942 ft | 224 kts | 13° |
| 2026-04-14 19:24 | -8.46246 | 13.54769 | 14939 ft | 235 kts | 13° |
| 2026-04-14 19:24 | -8.44626 | 13.55149 | 14935 ft | 242 kts | 13° |
| 2026-04-14 19:25 | -8.42975 | 13.55538 | 14937 ft | 245 kts | 13° |
| 2026-04-14 19:25 | -8.41305 | 13.55924 | 14935 ft | 247 kts | 13° |
| 2026-04-14 19:25 | -8.39615 | 13.56294 | 14933 ft | 249 kts | 12° |
| 2026-04-14 19:25 | -8.37913 | 13.56663 | 14933 ft | 251 kts | 12° |
| 2026-04-14 19:26 | -8.36208 | 13.57052 | 14935 ft | 251 kts | 15° |
| 2026-04-14 19:26 | -8.34546 | 13.57587 | 14921 ft | 251 kts | 23° |
| 2026-04-14 19:26 | -8.33134 | 13.58595 | 14925 ft | 250 kts | 46° |
| 2026-04-14 19:26 | -8.31970 | 13.59895 | 14938 ft | 250 kts | 47° |
| 2026-04-14 19:27 | -8.30701 | 13.61099 | 14941 ft | 251 kts | 39° |
| 2026-04-14 19:27 | -8.29243 | 13.62070 | 14933 ft | 252 kts | 27° |
| 2026-04-14 19:27 | -8.27612 | 13.62728 | 14939 ft | 253 kts | 19° |
| 2026-04-14 19:27 | -8.25954 | 13.63321 | 14936 ft | 253 kts | 21° |
| 2026-04-14 19:28 | -8.24345 | 13.63987 | 14938 ft | 254 kts | 23° |
| 2026-04-14 19:28 | -8.22716 | 13.64681 | 14935 ft | 254 kts | 23° |
| 2026-04-14 19:28 | -8.21076 | 13.65357 | 14942 ft | 255 kts | 22° |
| 2026-04-14 19:28 | -8.19433 | 13.66032 | 14943 ft | 255 kts | 22° |
| 2026-04-14 19:29 | -8.17790 | 13.66709 | 14942 ft | 255 kts | 22° |
| 2026-04-14 19:29 | -8.16146 | 13.67389 | 14942 ft | 255 kts | 22° |
| 2026-04-14 19:29 | -8.14500 | 13.68068 | 14944 ft | 256 kts | 22° |
| 2026-04-14 19:29 | -8.12851 | 13.68748 | 14947 ft | 256 kts | 22° |
| 2026-04-14 19:30 | -8.11202 | 13.69428 | 14947 ft | 256 kts | 22° |
| 2026-04-14 19:30 | -8.09556 | 13.70109 | 14944 ft | 256 kts | 22° |
| 2026-04-14 19:30 | -8.07905 | 13.70789 | 14947 ft | 256 kts | 22° |
| 2026-04-14 19:30 | -8.06255 | 13.71470 | 14946 ft | 256 kts | 22° |
| 2026-04-14 19:31 | -8.04604 | 13.72151 | 14945 ft | 256 kts | 22° |
| 2026-04-14 19:31 | -8.02953 | 13.72833 | 14946 ft | 256 kts | 22° |
| 2026-04-14 19:31 | -8.01302 | 13.73513 | 14951 ft | 256 kts | 23° |
| 2026-04-14 19:31 | -7.99651 | 13.74194 | 14950 ft | 256 kts | 23° |
| 2026-04-14 19:32 | -7.97996 | 13.74875 | 14945 ft | 256 kts | 22° |
| 2026-04-14 19:32 | -7.96345 | 13.75558 | 14948 ft | 256 kts | 23° |
| 2026-04-14 19:32 | -7.94693 | 13.76239 | 14950 ft | 257 kts | 23° |
| 2026-04-14 19:32 | -7.93039 | 13.76921 | 14952 ft | 257 kts | 22° |
| 2026-04-14 19:33 | -7.91384 | 13.77601 | 14950 ft | 257 kts | 23° |
| 2026-04-14 19:33 | -7.89730 | 13.78285 | 14952 ft | 257 kts | 23° |
| 2026-04-14 19:33 | -7.88076 | 13.78967 | 14954 ft | 257 kts | 23° |
| 2026-04-14 19:33 | -7.86422 | 13.79647 | 14954 ft | 257 kts | 23° |
| 2026-04-14 19:34 | -7.83136 | 13.81002 | 14953 ft | 257 kts | 23° |
| 2026-04-14 19:34 | -7.81483 | 13.81683 | 14955 ft | 256 kts | 23° |
| 2026-04-14 19:34 | -7.79831 | 13.82363 | 14957 ft | 256 kts | 23° |
| 2026-04-14 19:35 | -7.78184 | 13.83041 | 14954 ft | 256 kts | 23° |
| 2026-04-14 19:35 | -7.76531 | 13.83723 | 14956 ft | 256 kts | 23° |
| 2026-04-14 19:35 | -7.74885 | 13.84401 | 14956 ft | 256 kts | 23° |
| 2026-04-14 19:35 | -7.73236 | 13.85080 | 14957 ft | 256 kts | 23° |
| 2026-04-14 19:36 | -7.71587 | 13.85758 | 14955 ft | 256 kts | 23° |
| 2026-04-14 19:36 | -7.69937 | 13.86438 | 14956 ft | 256 kts | 23° |
| 2026-04-14 19:36 | -7.68287 | 13.87117 | 14956 ft | 256 kts | 23° |
| 2026-04-14 19:36 | -7.66637 | 13.87797 | 14958 ft | 256 kts | 23° |
| 2026-04-14 19:37 | -7.64988 | 13.88476 | 14960 ft | 256 kts | 23° |
| 2026-04-14 19:37 | -7.63338 | 13.89155 | 14960 ft | 256 kts | 23° |
| 2026-04-14 19:37 | -7.61690 | 13.89834 | 14961 ft | 256 kts | 23° |
| 2026-04-14 19:37 | -7.60044 | 13.90510 | 14960 ft | 256 kts | 23° |
| 2026-04-14 19:38 | -7.58397 | 13.91189 | 14960 ft | 256 kts | 23° |
| 2026-04-14 19:38 | -7.56750 | 13.91866 | 14961 ft | 256 kts | 23° |
| 2026-04-14 19:38 | -7.55103 | 13.92543 | 14961 ft | 256 kts | 23° |
| 2026-04-14 19:38 | -7.53453 | 13.93224 | 14961 ft | 256 kts | 23° |
| 2026-04-14 19:39 | -7.51803 | 13.93901 | 14964 ft | 256 kts | 23° |
| 2026-04-14 19:39 | -7.50158 | 13.94578 | 14965 ft | 256 kts | 23° |
| 2026-04-14 19:39 | -7.48508 | 13.95257 | 14963 ft | 256 kts | 23° |
| 2026-04-14 19:39 | -7.46859 | 13.95936 | 14962 ft | 256 kts | 23° |
| 2026-04-14 19:40 | -7.45210 | 13.96613 | 14966 ft | 256 kts | 23° |
| 2026-04-14 19:40 | -7.43563 | 13.97290 | 14964 ft | 256 kts | 23° |
| 2026-04-14 19:40 | -7.41937 | 13.97959 | 14963 ft | 255 kts | 23° |
| 2026-04-14 19:40 | -7.40273 | 13.98644 | 14966 ft | 256 kts | 23° |
| 2026-04-14 19:41 | -7.38621 | 13.99324 | 14967 ft | 257 kts | 23° |
| 2026-04-14 19:41 | -7.36962 | 14.00004 | 14966 ft | 258 kts | 23° |
| 2026-04-14 19:41 | -7.35300 | 14.00688 | 14966 ft | 258 kts | 23° |
| 2026-04-14 19:41 | -7.33656 | 14.01363 | 14966 ft | 259 kts | 23° |
| 2026-04-14 19:42 | -7.31988 | 14.02049 | 14968 ft | 259 kts | 23° |
| 2026-04-14 19:42 | -7.30319 | 14.02734 | 14969 ft | 259 kts | 23° |
| 2026-04-14 19:42 | -7.28647 | 14.03423 | 14970 ft | 260 kts | 23° |
| 2026-04-14 19:42 | -7.26973 | 14.04110 | 14966 ft | 260 kts | 23° |
| 2026-04-14 19:43 | -7.25298 | 14.04798 | 14968 ft | 260 kts | 23° |
| 2026-04-14 19:43 | -7.23622 | 14.05486 | 14970 ft | 260 kts | 23° |
| 2026-04-14 19:43 | -7.21944 | 14.06176 | 14971 ft | 261 kts | 24° |
| 2026-04-14 19:43 | -7.20264 | 14.06867 | 14968 ft | 261 kts | 23° |
| 2026-04-14 19:44 | -7.18583 | 14.07556 | 14967 ft | 261 kts | 24° |
| 2026-04-14 19:44 | -7.16902 | 14.08246 | 14969 ft | 261 kts | 23° |
| 2026-04-14 19:44 | -7.15221 | 14.08937 | 14968 ft | 261 kts | 23° |
| 2026-04-14 19:44 | -7.13538 | 14.09629 | 14968 ft | 261 kts | 24° |
| 2026-04-14 19:45 | -7.12401 | 14.10097 | 14970 ft | 261 kts | 23° |
| 2026-04-14 19:45 | -7.10736 | 14.10777 | 14968 ft | 261 kts | 24° |
| 2026-04-14 19:45 | -7.09055 | 14.11468 | 14967 ft | 262 kts | 24° |
| 2026-04-14 19:45 | -7.07367 | 14.12160 | 14970 ft | 262 kts | 23° |
| 2026-04-14 19:46 | -7.05680 | 14.12853 | 14970 ft | 262 kts | 24° |
| 2026-04-14 19:46 | -7.03998 | 14.13555 | 14967 ft | 261 kts | 25° |
| 2026-04-14 19:46 | -7.02368 | 14.14356 | 14966 ft | 261 kts | 27° |
| 2026-04-14 19:46 | -7.00720 | 14.15117 | 14964 ft | 261 kts | 26° |
| 2026-04-14 19:47 | -6.99069 | 14.15884 | 14965 ft | 261 kts | 26° |
| 2026-04-14 19:47 | -6.97428 | 14.16669 | 14966 ft | 261 kts | 27° |
| 2026-04-14 19:47 | -6.95788 | 14.17452 | 14966 ft | 261 kts | 27° |
| 2026-04-14 19:47 | -6.94142 | 14.18231 | 14965 ft | 261 kts | 26° |
| 2026-04-14 19:48 | -6.92496 | 14.19012 | 14964 ft | 262 kts | 27° |
| 2026-04-14 19:48 | -6.90848 | 14.19794 | 14964 ft | 262 kts | 27° |
| 2026-04-14 19:48 | -6.89201 | 14.20576 | 14961 ft | 262 kts | 27° |
| 2026-04-14 19:48 | -6.87555 | 14.21357 | 14963 ft | 262 kts | 26° |
| 2026-04-14 19:49 | -6.85909 | 14.22137 | 14967 ft | 261 kts | 27° |
| 2026-04-14 19:49 | -6.84263 | 14.22918 | 14968 ft | 262 kts | 27° |
| 2026-04-14 19:49 | -6.82614 | 14.23702 | 14969 ft | 262 kts | 27° |
| 2026-04-14 19:49 | -6.80967 | 14.24483 | 14966 ft | 262 kts | 26° |
| 2026-04-14 19:50 | -6.79320 | 14.25262 | 14966 ft | 261 kts | 27° |
| 2026-04-14 19:50 | -6.77674 | 14.26043 | 14966 ft | 262 kts | 27° |
| 2026-04-14 19:50 | -6.76045 | 14.26817 | 14967 ft | 262 kts | 27° |
| 2026-04-14 19:50 | -6.74379 | 14.27606 | 14966 ft | 262 kts | 27° |
| 2026-04-14 19:51 | -6.72733 | 14.28387 | 14963 ft | 261 kts | 27° |
| 2026-04-14 19:51 | -6.71107 | 14.29157 | 14963 ft | 261 kts | 26° |
| 2026-04-14 19:51 | -6.69462 | 14.29937 | 14964 ft | 262 kts | 27° |
| 2026-04-14 19:51 | -6.67816 | 14.30719 | 14967 ft | 262 kts | 27° |
| 2026-04-14 19:52 | -6.66169 | 14.31499 | 14966 ft | 262 kts | 27° |
| 2026-04-14 19:52 | -6.64514 | 14.32282 | 14969 ft | 263 kts | 27° |
| 2026-04-14 19:52 | -6.62862 | 14.33068 | 14965 ft | 263 kts | 27° |
| 2026-04-14 19:52 | -6.61209 | 14.33849 | 14967 ft | 262 kts | 27° |
| 2026-04-14 19:53 | -6.59558 | 14.34632 | 14968 ft | 262 kts | 27° |
| 2026-04-14 19:53 | -6.57907 | 14.35415 | 14967 ft | 262 kts | 27° |
| 2026-04-14 19:53 | -6.56257 | 14.36196 | 14967 ft | 262 kts | 27° |
| 2026-04-14 19:53 | -6.54610 | 14.36976 | 14965 ft | 262 kts | 27° |
| 2026-04-14 19:54 | -6.52963 | 14.37757 | 14967 ft | 262 kts | 27° |
| 2026-04-14 19:54 | -6.49672 | 14.39316 | 14965 ft | 261 kts | 27° |
| 2026-04-14 19:54 | -6.48026 | 14.40095 | 14963 ft | 261 kts | 27° |
| 2026-04-14 19:55 | -6.46382 | 14.40874 | 14967 ft | 261 kts | 27° |
| 2026-04-14 19:55 | -6.44737 | 14.41653 | 14968 ft | 261 kts | 27° |
| 2026-04-14 19:55 | -6.43094 | 14.42432 | 14967 ft | 261 kts | 27° |
| 2026-04-14 19:55 | -6.41450 | 14.43209 | 14968 ft | 261 kts | 27° |
| 2026-04-14 19:56 | -6.39808 | 14.43986 | 14965 ft | 261 kts | 27° |
| 2026-04-14 19:56 | -6.38165 | 14.44765 | 14964 ft | 261 kts | 27° |
| 2026-04-14 19:56 | -6.36522 | 14.45542 | 14966 ft | 261 kts | 27° |
| 2026-04-14 19:56 | -6.34879 | 14.46320 | 14965 ft | 261 kts | 27° |
| 2026-04-14 19:57 | -6.33237 | 14.47098 | 14967 ft | 261 kts | 27° |
| 2026-04-14 19:57 | -6.31592 | 14.47876 | 14966 ft | 261 kts | 27° |
| 2026-04-14 19:57 | -6.29953 | 14.48652 | 14967 ft | 261 kts | 27° |
| 2026-04-14 19:57 | -6.28308 | 14.49430 | 14969 ft | 261 kts | 27° |
| 2026-04-14 19:58 | -6.26662 | 14.50209 | 14966 ft | 261 kts | 27° |
| 2026-04-14 19:58 | -6.25016 | 14.50988 | 14969 ft | 262 kts | 27° |
| 2026-04-14 19:58 | -6.23367 | 14.51768 | 14966 ft | 261 kts | 27° |
| 2026-04-14 19:58 | -6.21721 | 14.52547 | 14970 ft | 262 kts | 27° |
| 2026-04-14 19:59 | -6.20078 | 14.53325 | 14964 ft | 262 kts | 27° |
| 2026-04-14 19:59 | -6.18431 | 14.54103 | 14964 ft | 262 kts | 27° |
| 2026-04-14 19:59 | -6.16784 | 14.54882 | 14965 ft | 262 kts | 27° |
| 2026-04-14 19:59 | -6.15137 | 14.55662 | 14965 ft | 262 kts | 27° |
| 2026-04-14 20:00 | -6.13509 | 14.56431 | 14964 ft | 262 kts | 27° |
| 2026-04-14 20:00 | -6.11865 | 14.57208 | 14964 ft | 261 kts | 27° |
| 2026-04-14 20:00 | -6.10217 | 14.57989 | 14966 ft | 261 kts | 27° |
| 2026-04-14 20:00 | -6.08576 | 14.58764 | 14966 ft | 261 kts | 27° |
| 2026-04-14 20:01 | -6.06931 | 14.59540 | 14959 ft | 261 kts | 27° |
| 2026-04-14 20:01 | -6.05289 | 14.60319 | 14961 ft | 261 kts | 27° |
| 2026-04-14 20:01 | -6.03645 | 14.61096 | 14959 ft | 261 kts | 27° |
| 2026-04-14 20:01 | -6.02002 | 14.61872 | 14958 ft | 261 kts | 27° |
| 2026-04-14 20:02 | -6.00356 | 14.62649 | 14959 ft | 261 kts | 27° |
| 2026-04-14 20:02 | -5.98714 | 14.63425 | 14962 ft | 261 kts | 27° |
| 2026-04-14 20:02 | -5.97070 | 14.64204 | 14962 ft | 261 kts | 27° |
| 2026-04-14 20:02 | -5.95424 | 14.64980 | 14960 ft | 261 kts | 27° |
| 2026-04-14 20:03 | -5.93777 | 14.65759 | 14964 ft | 262 kts | 27° |
| 2026-04-14 20:03 | -5.92131 | 14.66539 | 14963 ft | 262 kts | 27° |
| 2026-04-14 20:03 | -5.90480 | 14.67317 | 14963 ft | 262 kts | 27° |
| 2026-04-14 20:03 | -5.88831 | 14.68097 | 14964 ft | 262 kts | 27° |
| 2026-04-14 20:04 | -5.87215 | 14.68928 | 14965 ft | 261 kts | 30° |
| 2026-04-14 20:04 | -5.85606 | 14.69727 | 14957 ft | 261 kts | 27° |
| 2026-04-14 20:04 | -5.83967 | 14.70509 | 14962 ft | 262 kts | 28° |
| 2026-04-14 20:04 | -5.82336 | 14.71324 | 14963 ft | 262 kts | 28° |
| 2026-04-14 20:05 | -5.80708 | 14.72149 | 14960 ft | 262 kts | 28° |
| 2026-04-14 20:05 | -5.79076 | 14.72966 | 14958 ft | 262 kts | 28° |
| 2026-04-14 20:05 | -5.77445 | 14.73780 | 14959 ft | 262 kts | 28° |
| 2026-04-14 20:05 | -5.75815 | 14.74596 | 14960 ft | 262 kts | 28° |
| 2026-04-14 20:06 | -5.74186 | 14.75412 | 14959 ft | 262 kts | 28° |
| 2026-04-14 20:06 | -5.72553 | 14.76228 | 14958 ft | 261 kts | 28° |
| 2026-04-14 20:06 | -5.70927 | 14.77042 | 14956 ft | 261 kts | 28° |
| 2026-04-14 20:06 | -5.69299 | 14.77856 | 14955 ft | 261 kts | 28° |
| 2026-04-14 20:07 | -5.67672 | 14.78670 | 14958 ft | 261 kts | 28° |
| 2026-04-14 20:07 | -5.66047 | 14.79483 | 14959 ft | 261 kts | 28° |
| 2026-04-14 20:07 | -5.64422 | 14.80297 | 14960 ft | 261 kts | 28° |
| 2026-04-14 20:07 | -5.62799 | 14.81107 | 14960 ft | 261 kts | 28° |
| 2026-04-14 20:08 | -5.61135 | 14.81840 | 14943 ft | 262 kts | 18° |
| 2026-04-14 20:08 | -5.59325 | 14.82024 | 14960 ft | 263 kts | 1° |
| 2026-04-14 20:08 | -5.57490 | 14.81946 | 14966 ft | 264 kts | 359° |
| 2026-04-14 20:08 | -5.55657 | 14.81892 | 14965 ft | 264 kts | 2° |
| 2026-04-14 20:09 | -5.53826 | 14.81951 | 14965 ft | 263 kts | 5° |
| 2026-04-14 20:09 | -5.51996 | 14.82021 | 14965 ft | 263 kts | 4° |
| 2026-04-14 20:09 | -5.50161 | 14.82067 | 14965 ft | 264 kts | 3° |
| 2026-04-14 20:09 | -5.48329 | 14.82107 | 14967 ft | 264 kts | 3° |
| 2026-04-14 20:10 | -5.46492 | 14.82149 | 14966 ft | 264 kts | 4° |
| 2026-04-14 20:10 | -5.44655 | 14.82194 | 14973 ft | 264 kts | 4° |
| 2026-04-14 20:10 | -5.42808 | 14.82241 | 14899 ft | 267 kts | 4° |
| 2026-04-14 20:10 | -5.40929 | 14.82287 | 14737 ft | 273 kts | 3° |
| 2026-04-14 20:11 | -5.39002 | 14.82333 | 14509 ft | 280 kts | 3° |
| 2026-04-14 20:11 | -5.37057 | 14.82380 | 14298 ft | 285 kts | 3° |
| 2026-04-14 20:11 | -5.35031 | 14.82427 | 14083 ft | 289 kts | 3° |
| 2026-04-14 20:11 | -5.33037 | 14.82475 | 13883 ft | 292 kts | 3° |
| 2026-04-14 20:12 | -5.30979 | 14.82526 | 13683 ft | 293 kts | 3° |
| 2026-04-14 20:12 | -5.28930 | 14.82574 | 13452 ft | 295 kts | 3° |
| 2026-04-14 20:12 | -5.26905 | 14.82621 | 13258 ft | 296 kts | 3° |
| 2026-04-14 20:12 | -5.24843 | 14.82671 | 13113 ft | 297 kts | 3° |
| 2026-04-14 20:13 | -5.22777 | 14.82721 | 13047 ft | 297 kts | 3° |
| 2026-04-14 20:13 | -5.20713 | 14.82770 | 12947 ft | 297 kts | 3° |
| 2026-04-14 20:13 | -5.18647 | 14.82822 | 12738 ft | 297 kts | 3° |
| 2026-04-14 20:13 | -5.16578 | 14.82871 | 12526 ft | 298 kts | 3° |
| 2026-04-14 20:14 | -5.14511 | 14.82920 | 12313 ft | 298 kts | 3° |
| 2026-04-14 20:14 | -5.12438 | 14.82969 | 12108 ft | 298 kts | 3° |
| 2026-04-14 20:14 | -5.10364 | 14.83020 | 11908 ft | 298 kts | 3° |
| 2026-04-14 20:14 | -5.08294 | 14.83071 | 11733 ft | 298 kts | 3° |
| 2026-04-14 20:15 | -5.06225 | 14.83118 | 11541 ft | 297 kts | 3° |
| 2026-04-14 20:15 | -5.04161 | 14.83167 | 11343 ft | 297 kts | 3° |
| 2026-04-14 20:15 | -5.02092 | 14.83218 | 11182 ft | 297 kts | 3° |
| 2026-04-14 20:15 | -5.00024 | 14.83270 | 11027 ft | 297 kts | 3° |
| 2026-04-14 20:16 | -4.97957 | 14.83316 | 10837 ft | 297 kts | 3° |
| 2026-04-14 20:16 | -4.95900 | 14.83365 | 10665 ft | 292 kts | 3° |
| 2026-04-14 20:16 | -4.93909 | 14.83414 | 10462 ft | 282 kts | 3° |
| 2026-04-14 20:16 | -4.91974 | 14.83459 | 10245 ft | 274 kts | 3° |
| 2026-04-14 20:17 | -4.90092 | 14.83505 | 10028 ft | 269 kts | 3° |
| 2026-04-14 20:17 | -4.88235 | 14.83549 | 9801 ft | 264 kts | 3° |
| 2026-04-14 20:17 | -4.86429 | 14.83594 | 9575 ft | 262 kts | 3° |
| 2026-04-14 20:17 | -4.84655 | 14.83838 | 9286 ft | 257 kts | 19° |
| 2026-04-14 20:18 | -4.83117 | 14.84711 | 9006 ft | 255 kts | 41° |
| 2026-04-14 20:18 | -4.82047 | 14.86103 | 8733 ft | 253 kts | 64° |
| 2026-04-14 20:18 | -4.81517 | 14.87774 | 8502 ft | 251 kts | 77° |
| 2026-04-14 20:18 | -4.81105 | 14.89472 | 8294 ft | 250 kts | 75° |
| 2026-04-14 20:19 | -4.80602 | 14.91141 | 8076 ft | 250 kts | 72° |
| 2026-04-14 20:19 | -4.80067 | 14.92799 | 7851 ft | 250 kts | 72° |
| 2026-04-14 20:19 | -4.79554 | 14.94467 | 7642 ft | 250 kts | 73° |
| 2026-04-14 20:19 | -4.79045 | 14.96139 | 7422 ft | 251 kts | 73° |
| 2026-04-14 20:20 | -4.78531 | 14.97811 | 7217 ft | 251 kts | 73° |
| 2026-04-14 20:20 | -4.78015 | 14.99488 | 7006 ft | 252 kts | 73° |
| 2026-04-14 20:20 | -4.77499 | 15.01168 | 6801 ft | 252 kts | 73° |
| 2026-04-14 20:20 | -4.76982 | 15.02852 | 6604 ft | 253 kts | 73° |
| 2026-04-14 20:21 | -4.76463 | 15.04539 | 6408 ft | 254 kts | 73° |
| 2026-04-14 20:21 | -4.75947 | 15.06216 | 6194 ft | 250 kts | 73° |
| 2026-04-14 20:21 | -4.75438 | 15.07870 | 5968 ft | 247 kts | 73° |
| 2026-04-14 20:21 | -4.74947 | 15.09471 | 5751 ft | 246 kts | 73° |
| 2026-04-14 20:22 | -4.74443 | 15.11103 | 5610 ft | 244 kts | 74° |
| 2026-04-14 20:22 | -4.73948 | 15.12718 | 5430 ft | 243 kts | 73° |
| 2026-04-14 20:22 | -4.73453 | 15.14340 | 5270 ft | 243 kts | 74° |
| 2026-04-14 20:22 | -4.72962 | 15.15935 | 5109 ft | 242 kts | 73° |
| 2026-04-14 20:23 | -4.72458 | 15.17553 | 5054 ft | 238 kts | 73° |
| 2026-04-14 20:23 | -4.71972 | 15.19147 | 5060 ft | 241 kts | 75° |
| 2026-04-14 20:23 | -4.71475 | 15.20760 | 4914 ft | 241 kts | 73° |
| 2026-04-14 20:23 | -4.70990 | 15.22330 | 4966 ft | 230 kts | 74° |
| 2026-04-14 20:24 | -4.70528 | 15.23832 | 4997 ft | 223 kts | 74° |
| 2026-04-14 20:24 | -4.70075 | 15.25306 | 5005 ft | 219 kts | 74° |
| 2026-04-14 20:24 | -4.69635 | 15.26740 | 4996 ft | 218 kts | 73° |
| 2026-04-14 20:24 | -4.69183 | 15.28204 | 5008 ft | 217 kts | 73° |
| 2026-04-14 20:25 | -4.68746 | 15.29626 | 5002 ft | 217 kts | 74° |
| 2026-04-14 20:25 | -4.68304 | 15.31061 | 5003 ft | 214 kts | 74° |
| 2026-04-14 20:25 | -4.67869 | 15.32476 | 4996 ft | 211 kts | 74° |
| 2026-04-14 20:25 | -4.67437 | 15.33877 | 5002 ft | 210 kts | 74° |
| 2026-04-14 20:26 | -4.67037 | 15.35176 | 5006 ft | 208 kts | 74° |
| 2026-04-14 20:26 | -4.66612 | 15.36557 | 5008 ft | 206 kts | 73° |
| 2026-04-14 20:26 | -4.66192 | 15.37925 | 5006 ft | 204 kts | 74° |
| 2026-04-14 20:26 | -4.65775 | 15.39283 | 4999 ft | 204 kts | 74° |
| 2026-04-14 20:27 | -4.65357 | 15.40634 | 5007 ft | 203 kts | 73° |
| 2026-04-14 20:27 | -4.64940 | 15.41980 | 5008 ft | 202 kts | 74° |
| 2026-04-14 20:27 | -4.64525 | 15.43327 | 5014 ft | 203 kts | 74° |
| 2026-04-14 20:27 | -4.64112 | 15.44690 | 5008 ft | 205 kts | 74° |
| 2026-04-14 20:28 | -4.63687 | 15.46056 | 5015 ft | 205 kts | 73° |
| 2026-04-14 20:28 | -4.63267 | 15.47418 | 5011 ft | 204 kts | 74° |
| 2026-04-14 20:28 | -4.62849 | 15.48774 | 5007 ft | 203 kts | 74° |
| 2026-04-14 20:28 | -4.62434 | 15.50124 | 5002 ft | 202 kts | 73° |
| 2026-04-14 20:29 | -4.62020 | 15.51463 | 5004 ft | 201 kts | 73° |
| 2026-04-14 20:29 | -4.61609 | 15.52803 | 5002 ft | 200 kts | 74° |
| 2026-04-14 20:29 | -4.61197 | 15.54137 | 5005 ft | 200 kts | 73° |
| 2026-04-14 20:29 | -4.60791 | 15.55450 | 5005 ft | 200 kts | 74° |
| 2026-04-14 20:30 | -4.60200 | 15.56698 | 4991 ft | 200 kts | 52° |
| 2026-04-14 20:30 | -4.59073 | 15.57518 | 4994 ft | 200 kts | 21° |
| 2026-04-14 20:30 | -4.57729 | 15.57854 | 5020 ft | 199 kts | 12° |
| 2026-04-14 20:30 | -4.56405 | 15.58179 | 5020 ft | 199 kts | 16° |
| 2026-04-14 20:31 | -4.55081 | 15.58580 | 5022 ft | 198 kts | 17° |
| 2026-04-14 20:31 | -4.53757 | 15.58987 | 5014 ft | 200 kts | 17° |
| 2026-04-14 20:31 | -4.52426 | 15.59387 | 5017 ft | 199 kts | 17° |
| 2026-04-14 20:31 | -4.51093 | 15.59788 | 5015 ft | 200 kts | 17° |
| 2026-04-14 20:32 | -4.49761 | 15.60192 | 5018 ft | 200 kts | 17° |
| 2026-04-14 20:32 | -4.48436 | 15.60591 | 5026 ft | 197 kts | 17° |
| 2026-04-14 20:32 | -4.47138 | 15.60985 | 5019 ft | 194 kts | 17° |
| 2026-04-14 20:32 | -4.45869 | 15.61369 | 5016 ft | 187 kts | 17° |
| 2026-04-14 20:33 | -4.44634 | 15.61740 | 5013 ft | 184 kts | 17° |
| 2026-04-14 20:33 | -4.43419 | 15.62108 | 5018 ft | 179 kts | 17° |
| 2026-04-14 20:33 | -4.42244 | 15.62464 | 5017 ft | 175 kts | 17° |
| 2026-04-14 20:34 | -4.39902 | 15.63165 | 5002 ft | 176 kts | 17° |
| 2026-04-14 20:34 | -4.38741 | 15.63526 | 5000 ft | 174 kts | 17° |
| 2026-04-14 20:34 | -4.37580 | 15.63870 | 4984 ft | 174 kts | 17° |
| 2026-04-14 20:34 | -4.36413 | 15.64199 | 4972 ft | 174 kts | 16° |
| 2026-04-14 20:35 | -4.35253 | 15.64528 | 4955 ft | 172 kts | 16° |
| 2026-04-14 20:35 | -4.34103 | 15.64852 | 4956 ft | 172 kts | 15° |
| 2026-04-14 20:35 | -4.33320 | 15.65010 | 4865 ft | 175 kts | 6° |
| 2026-04-14 20:35 | -4.31735 | 15.64744 | 4661 ft | 174 kts | 332° |
| 2026-04-14 20:36 | -4.31107 | 15.64261 | 4532 ft | 171 kts | 312° |
| 2026-04-14 20:36 | -4.30378 | 15.62894 | 4295 ft | 167 kts | 296° |
| 2026-04-14 20:36 | -4.29794 | 15.61892 | 4141 ft | 166 kts | 299° |
| 2026-04-14 20:36 | -4.29215 | 15.60894 | 3978 ft | 165 kts | 298° |
| 2026-04-14 20:37 | -4.28832 | 15.60221 | 3874 ft | 165 kts | 298° |
| 2026-04-14 20:37 | -4.28413 | 15.59172 | 3668 ft | 163 kts | 273° |
| 2026-04-14 20:37 | -4.28808 | 15.58146 | 3412 ft | 162 kts | 223° |
| 2026-04-14 20:37 | -4.29830 | 15.57733 | 3231 ft | 159 kts | 191° |
| 2026-04-14 20:38 | -4.30805 | 15.57271 | 3014 ft | 160 kts | 226° |
| 2026-04-14 20:38 | -4.31141 | 15.56284 | 3015 ft | 145 kts | 259° |
| 2026-04-14 20:38 | -4.31585 | 15.55424 | 3001 ft | 134 kts | 234° |
| 2026-04-14 20:38 | -4.32045 | 15.54646 | 2966 ft | 128 kts | 237° |
| 2026-04-14 20:39 | -4.32527 | 15.53875 | 2832 ft | 130 kts | 237° |
| 2026-04-14 20:39 | -4.33007 | 15.53112 | 2667 ft | 132 kts | 236° |
| 2026-04-14 20:39 | -4.33500 | 15.52346 | 2500 ft | 129 kts | 236° |
| 2026-04-14 20:39 | -4.33977 | 15.51599 | 2340 ft | 126 kts | 236° |
| 2026-04-14 20:40 | -4.34450 | 15.50864 | 2183 ft | 124 kts | 236° |
| 2026-04-14 20:40 | -4.34915 | 15.50138 | 2038 ft | 124 kts | 236° |
| 2026-04-14 20:40 | -4.35392 | 15.49395 | 1890 ft | 127 kts | 236° |
| 2026-04-14 20:40 | -4.35871 | 15.48655 | 1764 ft | 124 kts | 236° |
| 2026-04-14 20:41 | -4.36335 | 15.47926 | 1570 ft | 124 kts | 236° |
| 2026-04-14 20:41 | -4.36809 | 15.47204 | 1335 ft | 122 kts | 235° |
| 2026-04-14 20:41 | -4.37277 | 15.46514 | 1168 ft | 117 kts | 236° |
| 2026-04-14 20:41 | -4.37694 | 15.45838 | 1046 ft | 111 kts | 237° |
| 2026-04-14 20:42 | -4.38088 | 15.45209 | 1012 ft | 102 kts | 236° |
| 2026-04-14 20:42 | -4.38454 | 15.44655 | 1006 ft | 88 kts | 238° |
| 2026-04-14 20:42 | -4.38884 | 15.44109 | 1003 ft | 19 kts | 141° |
| 2026-04-14 20:43 | -4.38974 | 15.44178 | 1004 ft | 14 kts | 127° |
| 2026-04-14 20:43 | -4.38979 | 15.44246 | 1005 ft | 8 kts | 75° |
| 2026-04-14 20:43 | -4.38980 | 15.44262 | 1004 ft | 0 kts | 135° |